PWSweather.com
Personal Weather Stations
Station Observations
KOHCLEVE171
Cleveland, OH

Cleveland, OH

Lat: 41.48646164, Lon: -81.46408081

Elevation: 1059

Station Type:

High Low Average
Temperature 43.2°F6.2°C 29.3°F-1.5°C 37.0°F2.8°C
Dew Point 37.0°F2.8°C 27.0°F-2.8°C 33.7°F0.9°C
Winds 6.0 mph 9.7 kmh Calm Calm 2.0 mph WSW3.2 kmh WSW
Wind Gusts 14.1 mph22.7 kmh -- 4.0 mph6.4 kmh
Humidity 97% 77% 88%
Pressure 29.91 in1012.9 mb 29.60 in1002.4 mb -
Precipitation 0.00 in0.0 mm - -
Hour Temp Dew Point Humidity Winds Wind Gusts Pressure Precip Precip Rate Daily Precip Total
12:04 AM 32.2°F0.1°C 29.3°F-1.5°C 89% Calm Calm -- 29.63 in1003.4 mb 0.00 in0.0 mm 0.00 in0.0 mm 0.00 in0.0 mm
12:09 AM 32.4°F0.2°C 28.9°F-1.7°C 87% Calm Calm -- 29.64 in1003.7 mb 0.00 in0.0 mm 0.00 in0.0 mm 0.00 in0.0 mm
12:14 AM 31.6°F-0.2°C 28.2°F-2.1°C 87% 0.7 mph NE1.1 kmh NE 0.9 mph1.4 kmh 29.63 in1003.4 mb 0.00 in0.0 mm 0.00 in0.0 mm 0.00 in0.0 mm
12:19 AM 31.8°F-0.1°C 28.9°F-1.7°C 89% Calm Calm -- 29.63 in1003.4 mb 0.00 in0.0 mm 0.00 in0.0 mm 0.00 in0.0 mm
12:24 AM 31.8°F-0.1°C 28.4°F-2.0°C 87% 1.1 mph SSE1.8 kmh SSE 1.6 mph2.6 kmh 29.63 in1003.4 mb 0.00 in0.0 mm 0.00 in0.0 mm 0.00 in0.0 mm
12:29 AM 31.8°F-0.1°C 28.4°F-2.0°C 87% 0.4 mph SE0.6 kmh SE 1.1 mph1.8 kmh 29.63 in1003.4 mb 0.00 in0.0 mm 0.00 in0.0 mm 0.00 in0.0 mm
12:34 AM 32.0°F0.0°C 28.6°F-1.9°C 87% 0.4 mph SE0.6 kmh SE 1.1 mph1.8 kmh 29.63 in1003.4 mb 0.00 in0.0 mm 0.00 in0.0 mm 0.00 in0.0 mm
12:39 AM 32.0°F0.0°C 28.6°F-1.9°C 87% Calm Calm 0.7 mph1.1 kmh 29.62 in1003.0 mb 0.00 in0.0 mm 0.00 in0.0 mm 0.00 in0.0 mm
12:44 AM 32.0°F0.0°C 28.6°F-1.9°C 87% 0.7 mph SSE1.1 kmh SSE 1.3 mph2.1 kmh 29.62 in1003.0 mb 0.00 in0.0 mm 0.00 in0.0 mm 0.00 in0.0 mm
12:49 AM 31.8°F-0.1°C 28.4°F-2.0°C 87% 0.2 mph E0.3 kmh E 2.5 mph4.0 kmh 29.62 in1003.0 mb 0.00 in0.0 mm 0.00 in0.0 mm 0.00 in0.0 mm
12:54 AM 31.8°F-0.1°C 28.9°F-1.7°C 89% 1.3 mph S2.1 kmh S 3.6 mph5.8 kmh 29.62 in1003.0 mb 0.00 in0.0 mm 0.00 in0.0 mm 0.00 in0.0 mm
01:04 AM 31.8°F-0.1°C 28.4°F-2.0°C 87% 1.3 mph N2.1 kmh N 1.6 mph2.6 kmh 29.62 in1003.0 mb 0.00 in0.0 mm 0.00 in0.0 mm 0.00 in0.0 mm
01:09 AM 30.9°F-0.6°C 28.0°F-2.2°C 89% 0.9 mph N1.4 kmh N 1.3 mph2.1 kmh 29.62 in1003.0 mb 0.00 in0.0 mm 0.00 in0.0 mm 0.00 in0.0 mm
01:14 AM 30.9°F-0.6°C 28.0°F-2.2°C 89% 0.2 mph NNE0.3 kmh NNE 1.1 mph1.8 kmh 29.61 in1002.7 mb 0.00 in0.0 mm 0.00 in0.0 mm 0.00 in0.0 mm
01:19 AM 30.6°F-0.8°C 27.7°F-2.4°C 89% 1.1 mph N1.8 kmh N 1.3 mph2.1 kmh 29.61 in1002.7 mb 0.00 in0.0 mm 0.00 in0.0 mm 0.00 in0.0 mm
01:24 AM 30.4°F-0.9°C 27.9°F-2.3°C 90% 1.1 mph N1.8 kmh N 1.6 mph2.6 kmh 29.61 in1002.7 mb 0.00 in0.0 mm 0.00 in0.0 mm 0.00 in0.0 mm
01:29 AM 30.9°F-0.6°C 28.4°F-2.0°C 90% 0.9 mph WSW1.4 kmh WSW 1.3 mph2.1 kmh 29.61 in1002.7 mb 0.00 in0.0 mm 0.00 in0.0 mm 0.00 in0.0 mm
01:34 AM 30.6°F-0.8°C 28.0°F-2.2°C 90% 1.3 mph N2.1 kmh N 1.3 mph2.1 kmh 29.61 in1002.7 mb 0.00 in0.0 mm 0.00 in0.0 mm 0.00 in0.0 mm
01:39 AM 30.7°F-0.7°C 28.2°F-2.1°C 90% 1.8 mph N2.9 kmh N 2.2 mph3.5 kmh 29.60 in1002.4 mb 0.00 in0.0 mm 0.00 in0.0 mm 0.00 in0.0 mm
01:44 AM 30.4°F-0.9°C 27.9°F-2.3°C 90% 1.3 mph NNW2.1 kmh NNW 1.6 mph2.6 kmh 29.60 in1002.4 mb 0.00 in0.0 mm 0.00 in0.0 mm 0.00 in0.0 mm
01:49 AM 30.6°F-0.8°C 28.2°F-2.1°C 91% 0.2 mph S0.3 kmh S 2.0 mph3.2 kmh 29.60 in1002.4 mb 0.00 in0.0 mm 0.00 in0.0 mm 0.00 in0.0 mm
01:54 AM 30.7°F-0.7°C 28.2°F-2.1°C 90% Calm Calm 0.7 mph1.1 kmh 29.60 in1002.4 mb 0.00 in0.0 mm 0.00 in0.0 mm 0.00 in0.0 mm
01:59 AM 31.1°F-0.5°C 28.6°F-1.9°C 90% Calm Calm 0.2 mph0.3 kmh 29.60 in1002.4 mb 0.00 in0.0 mm 0.00 in0.0 mm 0.00 in0.0 mm
02:04 AM 30.6°F-0.8°C 28.0°F-2.2°C 90% 0.9 mph N1.4 kmh N 1.1 mph1.8 kmh 29.60 in1002.4 mb 0.00 in0.0 mm 0.00 in0.0 mm 0.00 in0.0 mm
02:09 AM 30.2°F-1.0°C 27.7°F-2.4°C 90% 0.4 mph NW0.6 kmh NW 1.1 mph1.8 kmh 29.60 in1002.4 mb 0.00 in0.0 mm 0.00 in0.0 mm 0.00 in0.0 mm
02:14 AM 30.4°F-0.9°C 27.9°F-2.3°C 90% 0.7 mph S1.1 kmh S 1.3 mph2.1 kmh 29.60 in1002.4 mb 0.00 in0.0 mm 0.00 in0.0 mm 0.00 in0.0 mm
02:19 AM 30.7°F-0.7°C 28.2°F-2.1°C 90% Calm Calm -- 29.60 in1002.4 mb 0.00 in0.0 mm 0.00 in0.0 mm 0.00 in0.0 mm
02:24 AM 30.4°F-0.9°C 27.9°F-2.3°C 90% 0.7 mph N1.1 kmh N 0.9 mph1.4 kmh 29.60 in1002.4 mb 0.00 in0.0 mm 0.00 in0.0 mm 0.00 in0.0 mm
02:29 AM 30.6°F-0.8°C 28.0°F-2.2°C 90% 0.2 mph SSW0.3 kmh SSW 0.7 mph1.1 kmh 29.60 in1002.4 mb 0.00 in0.0 mm 0.00 in0.0 mm 0.00 in0.0 mm
02:34 AM 30.9°F-0.6°C 28.4°F-2.0°C 90% Calm Calm 0.9 mph1.4 kmh 29.61 in1002.7 mb 0.00 in0.0 mm 0.00 in0.0 mm 0.00 in0.0 mm
02:39 AM 30.7°F-0.7°C 28.2°F-2.1°C 90% Calm Calm -- 29.61 in1002.7 mb 0.00 in0.0 mm 0.00 in0.0 mm 0.00 in0.0 mm
02:44 AM 30.7°F-0.7°C 28.2°F-2.1°C 90% 0.7 mph N1.1 kmh N 0.7 mph1.1 kmh 29.61 in1002.7 mb 0.00 in0.0 mm 0.00 in0.0 mm 0.00 in0.0 mm
02:49 AM 30.7°F-0.7°C 28.2°F-2.1°C 90% 1.3 mph SSW2.1 kmh SSW 1.6 mph2.6 kmh 29.61 in1002.7 mb 0.00 in0.0 mm 0.00 in0.0 mm 0.00 in0.0 mm
02:54 AM 30.9°F-0.6°C 28.0°F-2.2°C 89% Calm Calm -- 29.61 in1002.7 mb 0.00 in0.0 mm 0.00 in0.0 mm 0.00 in0.0 mm
02:59 AM 30.6°F-0.8°C 27.7°F-2.4°C 89% 0.9 mph N1.4 kmh N 0.9 mph1.4 kmh 29.61 in1002.7 mb 0.00 in0.0 mm 0.00 in0.0 mm 0.00 in0.0 mm
03:04 AM 30.0°F-1.1°C 27.5°F-2.5°C 90% 1.8 mph N2.9 kmh N 1.8 mph2.9 kmh 29.61 in1002.7 mb 0.00 in0.0 mm 0.00 in0.0 mm 0.00 in0.0 mm
03:09 AM 29.8°F-1.2°C 27.3°F-2.6°C 90% 1.1 mph N1.8 kmh N 1.1 mph1.8 kmh 29.61 in1002.7 mb 0.00 in0.0 mm 0.00 in0.0 mm 0.00 in0.0 mm
03:14 AM 29.5°F-1.4°C 27.0°F-2.8°C 90% 0.2 mph N0.3 kmh N 0.9 mph1.4 kmh 29.61 in1002.7 mb 0.00 in0.0 mm 0.00 in0.0 mm 0.00 in0.0 mm
03:19 AM 30.2°F-1.0°C 27.7°F-2.4°C 90% 0.9 mph S1.4 kmh S 1.3 mph2.1 kmh 29.61 in1002.7 mb 0.00 in0.0 mm 0.00 in0.0 mm 0.00 in0.0 mm
03:24 AM 30.2°F-1.0°C 27.7°F-2.4°C 90% 0.9 mph N1.4 kmh N 1.3 mph2.1 kmh 29.61 in1002.7 mb 0.00 in0.0 mm 0.00 in0.0 mm 0.00 in0.0 mm
03:29 AM 29.7°F-1.3°C 27.1°F-2.7°C 90% 1.3 mph N2.1 kmh N 1.8 mph2.9 kmh 29.61 in1002.7 mb 0.00 in0.0 mm 0.00 in0.0 mm 0.00 in0.0 mm
03:34 AM 29.3°F-1.5°C 27.0°F-2.8°C 91% 1.3 mph 2.1 kmh 1.8 mph2.9 kmh 29.61 in1002.7 mb 0.00 in0.0 mm 0.00 in0.0 mm 0.00 in0.0 mm
03:39 AM 29.3°F-1.5°C 27.0°F-2.8°C 91% 1.6 mph N2.6 kmh N 2.0 mph3.2 kmh 29.61 in1002.7 mb 0.00 in0.0 mm 0.00 in0.0 mm 0.00 in0.0 mm
03:44 AM 29.3°F-1.5°C 27.0°F-2.8°C 91% 1.3 mph N2.1 kmh N 1.6 mph2.6 kmh 29.62 in1003.0 mb 0.00 in0.0 mm 0.00 in0.0 mm 0.00 in0.0 mm
03:49 AM 29.5°F-1.4°C 27.1°F-2.7°C 91% 1.6 mph NNE2.6 kmh NNE 2.0 mph3.2 kmh 29.61 in1002.7 mb 0.00 in0.0 mm 0.00 in0.0 mm 0.00 in0.0 mm
03:54 AM 29.8°F-1.2°C 27.9°F-2.3°C 92% 1.6 mph 2.6 kmh 2.2 mph3.5 kmh 29.61 in1002.7 mb 0.00 in0.0 mm 0.00 in0.0 mm 0.00 in0.0 mm
03:59 AM 30.6°F-0.8°C 28.2°F-2.1°C 91% 1.6 mph N2.6 kmh N 2.0 mph3.2 kmh 29.61 in1002.7 mb 0.00 in0.0 mm 0.00 in0.0 mm 0.00 in0.0 mm
04:04 AM 30.9°F-0.6°C 28.6°F-1.9°C 91% 1.8 mph N2.9 kmh N 2.5 mph4.0 kmh 29.61 in1002.7 mb 0.00 in0.0 mm 0.00 in0.0 mm 0.00 in0.0 mm
04:09 AM 31.1°F-0.5°C 28.8°F-1.8°C 91% 0.7 mph N1.1 kmh N 1.3 mph2.1 kmh 29.61 in1002.7 mb 0.00 in0.0 mm 0.00 in0.0 mm 0.00 in0.0 mm
04:14 AM 31.3°F-0.4°C 28.9°F-1.7°C 91% 0.7 mph NNW1.1 kmh NNW 1.6 mph2.6 kmh 29.61 in1002.7 mb 0.00 in0.0 mm 0.00 in0.0 mm 0.00 in0.0 mm
04:19 AM 31.5°F-0.3°C 29.1°F-1.6°C 91% 0.7 mph N1.1 kmh N 1.8 mph2.9 kmh 29.61 in1002.7 mb 0.00 in0.0 mm 0.00 in0.0 mm 0.00 in0.0 mm
04:24 AM 31.6°F-0.2°C 29.3°F-1.5°C 91% 1.1 mph N1.8 kmh N 1.6 mph2.6 kmh 29.61 in1002.7 mb 0.00 in0.0 mm 0.00 in0.0 mm 0.00 in0.0 mm
04:29 AM 31.6°F-0.2°C 29.1°F-1.6°C 90% 0.9 mph N1.4 kmh N 1.1 mph1.8 kmh 29.61 in1002.7 mb 0.00 in0.0 mm 0.00 in0.0 mm 0.00 in0.0 mm
04:34 AM 31.6°F-0.2°C 29.1°F-1.6°C 90% 0.2 mph WNW0.3 kmh WNW 2.0 mph3.2 kmh 29.61 in1002.7 mb 0.00 in0.0 mm 0.00 in0.0 mm 0.00 in0.0 mm
04:39 AM 31.8°F-0.1°C 29.5°F-1.4°C 91% 0.2 mph NW0.3 kmh NW 1.1 mph1.8 kmh 29.62 in1003.0 mb 0.00 in0.0 mm 0.00 in0.0 mm 0.00 in0.0 mm
04:44 AM 31.8°F-0.1°C 29.3°F-1.5°C 90% 0.7 mph 1.1 kmh 1.6 mph2.6 kmh 29.62 in1003.0 mb 0.00 in0.0 mm 0.00 in0.0 mm 0.00 in0.0 mm
04:49 AM 32.0°F0.0°C 29.5°F-1.4°C 90% 0.4 mph N0.6 kmh N 1.1 mph1.8 kmh 29.61 in1002.7 mb 0.00 in0.0 mm 0.00 in0.0 mm 0.00 in0.0 mm
04:54 AM 32.0°F0.0°C 29.5°F-1.4°C 90% 1.1 mph NNW1.8 kmh NNW 2.0 mph3.2 kmh 29.61 in1002.7 mb 0.00 in0.0 mm 0.00 in0.0 mm 0.00 in0.0 mm
04:59 AM 32.2°F0.1°C 29.7°F-1.3°C 90% 0.2 mph NW0.3 kmh NW 1.1 mph1.8 kmh 29.61 in1002.7 mb 0.00 in0.0 mm 0.00 in0.0 mm 0.00 in0.0 mm
05:04 AM 32.4°F0.2°C 29.8°F-1.2°C 90% 1.1 mph N1.8 kmh N 1.3 mph2.1 kmh 29.61 in1002.7 mb 0.00 in0.0 mm 0.00 in0.0 mm 0.00 in0.0 mm
05:09 AM 32.4°F0.2°C 29.8°F-1.2°C 90% 1.3 mph NNW2.1 kmh NNW 1.8 mph2.9 kmh 29.61 in1002.7 mb 0.00 in0.0 mm 0.00 in0.0 mm 0.00 in0.0 mm
05:14 AM 32.4°F0.2°C 29.8°F-1.2°C 90% Calm Calm 0.7 mph1.1 kmh 29.61 in1002.7 mb 0.00 in0.0 mm 0.00 in0.0 mm 0.00 in0.0 mm
05:19 AM 32.4°F0.2°C 29.8°F-1.2°C 90% Calm Calm 0.7 mph1.1 kmh 29.61 in1002.7 mb 0.00 in0.0 mm 0.00 in0.0 mm 0.00 in0.0 mm
05:24 AM 32.4°F0.2°C 29.8°F-1.2°C 90% Calm Calm -- 29.61 in1002.7 mb 0.00 in0.0 mm 0.00 in0.0 mm 0.00 in0.0 mm
05:29 AM 32.4°F0.2°C 29.8°F-1.2°C 90% 0.2 mph W0.3 kmh W 1.1 mph1.8 kmh 29.61 in1002.7 mb 0.00 in0.0 mm 0.00 in0.0 mm 0.00 in0.0 mm
05:34 AM 32.4°F0.2°C 29.5°F-1.4°C 89% Calm Calm 0.7 mph1.1 kmh 29.60 in1002.4 mb 0.00 in0.0 mm 0.00 in0.0 mm 0.00 in0.0 mm
05:39 AM 32.2°F0.1°C 29.3°F-1.5°C 89% 0.7 mph NW1.1 kmh NW 1.1 mph1.8 kmh 29.60 in1002.4 mb 0.00 in0.0 mm 0.00 in0.0 mm 0.00 in0.0 mm
05:44 AM 32.2°F0.1°C 29.7°F-1.3°C 90% 0.7 mph SW1.1 kmh SW 1.1 mph1.8 kmh 29.60 in1002.4 mb 0.00 in0.0 mm 0.00 in0.0 mm 0.00 in0.0 mm
05:49 AM 31.8°F-0.1°C 29.3°F-1.5°C 90% 1.3 mph NNW2.1 kmh NNW 1.6 mph2.6 kmh 29.61 in1002.7 mb 0.00 in0.0 mm 0.00 in0.0 mm 0.00 in0.0 mm
05:54 AM 31.8°F-0.1°C 29.3°F-1.5°C 90% 0.7 mph NW1.1 kmh NW 1.8 mph2.9 kmh 29.61 in1002.7 mb 0.00 in0.0 mm 0.00 in0.0 mm 0.00 in0.0 mm
05:58 AM 31.8°F-0.1°C 29.3°F-1.5°C 90% 0.7 mph N1.1 kmh N 1.1 mph1.8 kmh 29.61 in1002.7 mb 0.00 in0.0 mm 0.00 in0.0 mm 0.00 in0.0 mm
06:03 AM 31.8°F-0.1°C 29.5°F-1.4°C 91% Calm Calm -- 29.61 in1002.7 mb 0.00 in0.0 mm 0.00 in0.0 mm 0.00 in0.0 mm
06:08 AM 32.0°F0.0°C 29.5°F-1.4°C 90% Calm Calm -- 29.61 in1002.7 mb 0.00 in0.0 mm 0.00 in0.0 mm 0.00 in0.0 mm
06:13 AM 31.8°F-0.1°C 29.3°F-1.5°C 90% 1.1 mph N1.8 kmh N 1.8 mph2.9 kmh 29.61 in1002.7 mb 0.00 in0.0 mm 0.00 in0.0 mm 0.00 in0.0 mm
06:18 AM 31.8°F-0.1°C 29.5°F-1.4°C 91% 0.4 mph NW0.6 kmh NW 1.6 mph2.6 kmh 29.61 in1002.7 mb 0.00 in0.0 mm 0.00 in0.0 mm 0.00 in0.0 mm
06:23 AM 31.8°F-0.1°C 29.5°F-1.4°C 91% 1.8 mph N2.9 kmh N 2.5 mph4.0 kmh 29.62 in1003.0 mb 0.00 in0.0 mm 0.00 in0.0 mm 0.00 in0.0 mm
06:28 AM 32.2°F0.1°C 30.2°F-1.0°C 92% 0.7 mph N1.1 kmh N 1.3 mph2.1 kmh 29.62 in1003.0 mb 0.00 in0.0 mm 0.00 in0.0 mm 0.00 in0.0 mm
06:33 AM 32.4°F0.2°C 30.4°F-0.9°C 92% 0.7 mph NNW1.1 kmh NNW 1.6 mph2.6 kmh 29.62 in1003.0 mb 0.00 in0.0 mm 0.00 in0.0 mm 0.00 in0.0 mm
06:38 AM 32.5°F0.3°C 30.6°F-0.8°C 92% 1.8 mph N2.9 kmh N 2.2 mph3.5 kmh 29.62 in1003.0 mb 0.00 in0.0 mm 0.00 in0.0 mm 0.00 in0.0 mm
06:43 AM 32.7°F0.4°C 30.7°F-0.7°C 92% 1.3 mph N2.1 kmh N 2.5 mph4.0 kmh 29.62 in1003.0 mb 0.00 in0.0 mm 0.00 in0.0 mm 0.00 in0.0 mm
06:48 AM 32.9°F0.5°C 30.9°F-0.6°C 92% 0.7 mph N1.1 kmh N 1.3 mph2.1 kmh 29.62 in1003.0 mb 0.00 in0.0 mm 0.00 in0.0 mm 0.00 in0.0 mm
06:53 AM 32.7°F0.4°C 30.7°F-0.7°C 92% Calm Calm -- 29.62 in1003.0 mb 0.00 in0.0 mm 0.00 in0.0 mm 0.00 in0.0 mm
06:58 AM 32.4°F0.2°C 30.4°F-0.9°C 92% 1.8 mph N2.9 kmh N 2.2 mph3.5 kmh 29.62 in1003.0 mb 0.00 in0.0 mm 0.00 in0.0 mm 0.00 in0.0 mm
07:03 AM 32.4°F0.2°C 30.7°F-0.7°C 94% 1.1 mph N1.8 kmh N 1.6 mph2.6 kmh 29.62 in1003.0 mb 0.00 in0.0 mm 0.00 in0.0 mm 0.00 in0.0 mm
07:08 AM 32.5°F0.3°C 30.9°F-0.6°C 94% 1.3 mph NNW2.1 kmh NNW 2.7 mph4.3 kmh 29.63 in1003.4 mb 0.00 in0.0 mm 0.00 in0.0 mm 0.00 in0.0 mm
07:13 AM 32.7°F0.4°C 31.5°F-0.3°C 95% 0.4 mph NNW0.6 kmh NNW 1.1 mph1.8 kmh 29.63 in1003.4 mb 0.00 in0.0 mm 0.00 in0.0 mm 0.00 in0.0 mm
07:18 AM 32.7°F0.4°C 31.5°F-0.3°C 95% 1.8 mph N2.9 kmh N 3.4 mph5.5 kmh 29.63 in1003.4 mb 0.00 in0.0 mm 0.00 in0.0 mm 0.00 in0.0 mm
07:23 AM 32.9°F0.5°C 31.6°F-0.2°C 95% 1.1 mph N1.8 kmh N 1.8 mph2.9 kmh 29.64 in1003.7 mb 0.00 in0.0 mm 0.00 in0.0 mm 0.00 in0.0 mm
07:28 AM 32.7°F0.4°C 31.6°F-0.2°C 96% 2.2 mph N3.5 kmh N 2.9 mph4.7 kmh 29.64 in1003.7 mb 0.00 in0.0 mm 0.00 in0.0 mm 0.00 in0.0 mm
07:33 AM 32.9°F0.5°C 31.8°F-0.1°C 96% 2.2 mph NNW3.5 kmh NNW 3.1 mph5.0 kmh 29.65 in1004.1 mb 0.00 in0.0 mm 0.00 in0.0 mm 0.00 in0.0 mm
07:38 AM 32.9°F0.5°C 31.8°F-0.1°C 96% 2.0 mph N3.2 kmh N 2.7 mph4.3 kmh 29.65 in1004.1 mb 0.00 in0.0 mm 0.00 in0.0 mm 0.00 in0.0 mm
07:43 AM 33.1°F0.6°C 32.0°F0.0°C 96% 1.6 mph NNW2.6 kmh NNW 2.2 mph3.5 kmh 29.65 in1004.1 mb 0.00 in0.0 mm 0.00 in0.0 mm 0.00 in0.0 mm
07:48 AM 33.1°F0.6°C 32.0°F0.0°C 96% 1.6 mph NNW2.6 kmh NNW 2.2 mph3.5 kmh 29.65 in1004.1 mb 0.00 in0.0 mm 0.00 in0.0 mm 0.00 in0.0 mm
07:53 AM 32.9°F0.5°C 31.8°F-0.1°C 96% 2.2 mph NNW3.5 kmh NNW 2.7 mph4.3 kmh 29.65 in1004.1 mb 0.00 in0.0 mm 0.00 in0.0 mm 0.00 in0.0 mm
07:58 AM 33.1°F0.6°C 32.0°F0.0°C 96% 1.6 mph N2.6 kmh N 2.7 mph4.3 kmh 29.65 in1004.1 mb 0.00 in0.0 mm 0.00 in0.0 mm 0.00 in0.0 mm
08:03 AM 33.1°F0.6°C 32.0°F0.0°C 96% 1.6 mph N2.6 kmh N 2.2 mph3.5 kmh 29.65 in1004.1 mb 0.00 in0.0 mm 0.00 in0.0 mm 0.00 in0.0 mm
08:08 AM 32.9°F0.5°C 31.8°F-0.1°C 96% 2.0 mph N3.2 kmh N 2.7 mph4.3 kmh 29.66 in1004.4 mb 0.00 in0.0 mm 0.00 in0.0 mm 0.00 in0.0 mm
08:13 AM 32.9°F0.5°C 31.8°F-0.1°C 96% 1.6 mph NNW2.6 kmh NNW 2.5 mph4.0 kmh 29.66 in1004.4 mb 0.00 in0.0 mm 0.00 in0.0 mm 0.00 in0.0 mm
08:18 AM 32.9°F0.5°C 31.8°F-0.1°C 96% 1.8 mph N2.9 kmh N 3.1 mph5.0 kmh 29.66 in1004.4 mb 0.00 in0.0 mm 0.00 in0.0 mm 0.00 in0.0 mm
08:23 AM 32.9°F0.5°C 31.8°F-0.1°C 96% 1.8 mph NNW2.9 kmh NNW 2.5 mph4.0 kmh 29.66 in1004.4 mb 0.00 in0.0 mm 0.00 in0.0 mm 0.00 in0.0 mm
08:28 AM 33.1°F0.6°C 32.0°F0.0°C 96% 1.8 mph N2.9 kmh N 2.0 mph3.2 kmh 29.67 in1004.7 mb 0.00 in0.0 mm 0.00 in0.0 mm 0.00 in0.0 mm
08:33 AM 33.1°F0.6°C 32.0°F0.0°C 96% 1.3 mph N2.1 kmh N 1.8 mph2.9 kmh 29.67 in1004.7 mb 0.00 in0.0 mm 0.00 in0.0 mm 0.00 in0.0 mm
08:38 AM 33.1°F0.6°C 32.0°F0.0°C 96% 0.9 mph NNW1.4 kmh NNW 1.8 mph2.9 kmh 29.68 in1005.1 mb 0.00 in0.0 mm 0.00 in0.0 mm 0.00 in0.0 mm
08:43 AM 33.1°F0.6°C 32.0°F0.0°C 96% 1.6 mph NNW2.6 kmh NNW 2.5 mph4.0 kmh 29.69 in1005.4 mb 0.00 in0.0 mm 0.00 in0.0 mm 0.00 in0.0 mm
08:48 AM 33.1°F0.6°C 32.0°F0.0°C 96% 1.8 mph NNW2.9 kmh NNW 2.5 mph4.0 kmh 29.69 in1005.4 mb 0.00 in0.0 mm 0.00 in0.0 mm 0.00 in0.0 mm
08:53 AM 33.1°F0.6°C 32.0°F0.0°C 96% 1.8 mph NNW2.9 kmh NNW 2.2 mph3.5 kmh 29.70 in1005.8 mb 0.00 in0.0 mm 0.00 in0.0 mm 0.00 in0.0 mm
08:58 AM 33.1°F0.6°C 32.4°F0.2°C 97% 1.1 mph N1.8 kmh N 2.0 mph3.2 kmh 29.70 in1005.8 mb 0.00 in0.0 mm 0.00 in0.0 mm 0.00 in0.0 mm
09:03 AM 33.1°F0.6°C 32.0°F0.0°C 96% 1.3 mph NW2.1 kmh NW 2.7 mph4.3 kmh 29.70 in1005.8 mb 0.00 in0.0 mm 0.00 in0.0 mm 0.00 in0.0 mm
09:08 AM 33.4°F0.8°C 32.7°F0.4°C 97% 0.7 mph NNW1.1 kmh NNW 1.8 mph2.9 kmh 29.70 in1005.8 mb 0.00 in0.0 mm 0.00 in0.0 mm 0.00 in0.0 mm
09:13 AM 33.6°F0.9°C 32.5°F0.3°C 96% 1.6 mph NNW2.6 kmh NNW 1.8 mph2.9 kmh 29.70 in1005.8 mb 0.00 in0.0 mm 0.00 in0.0 mm 0.00 in0.0 mm
09:18 AM 33.6°F0.9°C 32.9°F0.5°C 97% 2.0 mph N3.2 kmh N 2.5 mph4.0 kmh 29.70 in1005.8 mb 0.00 in0.0 mm 0.00 in0.0 mm 0.00 in0.0 mm
09:23 AM 33.8°F1.0°C 33.1°F0.6°C 97% 1.3 mph N2.1 kmh N 2.0 mph3.2 kmh 29.71 in1006.1 mb 0.00 in0.0 mm 0.00 in0.0 mm 0.00 in0.0 mm
09:28 AM 34.0°F1.1°C 33.3°F0.7°C 97% 1.1 mph N1.8 kmh N 1.8 mph2.9 kmh 29.71 in1006.1 mb 0.00 in0.0 mm 0.00 in0.0 mm 0.00 in0.0 mm
09:33 AM 34.2°F1.2°C 33.4°F0.8°C 97% 1.1 mph N1.8 kmh N 1.3 mph2.1 kmh 29.71 in1006.1 mb 0.00 in0.0 mm 0.00 in0.0 mm 0.00 in0.0 mm
09:38 AM 34.2°F1.2°C 33.4°F0.8°C 97% 1.8 mph N2.9 kmh N 2.7 mph4.3 kmh 29.71 in1006.1 mb 0.00 in0.0 mm 0.00 in0.0 mm 0.00 in0.0 mm
09:43 AM 34.3°F1.3°C 33.6°F0.9°C 97% 2.7 mph N4.3 kmh N 3.6 mph5.8 kmh 29.72 in1006.4 mb 0.00 in0.0 mm 0.00 in0.0 mm 0.00 in0.0 mm
09:48 AM 34.5°F1.4°C 33.8°F1.0°C 97% 2.5 mph N4.0 kmh N 4.3 mph6.9 kmh 29.73 in1006.8 mb 0.00 in0.0 mm 0.00 in0.0 mm 0.00 in0.0 mm
09:53 AM 34.5°F1.4°C 33.8°F1.0°C 97% 1.3 mph NNW2.1 kmh NNW 3.4 mph5.5 kmh 29.73 in1006.8 mb 0.00 in0.0 mm 0.00 in0.0 mm 0.00 in0.0 mm
09:58 AM 34.7°F1.5°C 34.0°F1.1°C 97% 4.0 mph N6.4 kmh N 5.6 mph9.0 kmh 29.73 in1006.8 mb 0.00 in0.0 mm 0.00 in0.0 mm 0.00 in0.0 mm
10:03 AM 34.9°F1.6°C 34.2°F1.2°C 97% 1.6 mph N2.6 kmh N 2.5 mph4.0 kmh 29.73 in1006.8 mb 0.00 in0.0 mm 0.00 in0.0 mm 0.00 in0.0 mm
10:08 AM 34.9°F1.6°C 34.2°F1.2°C 97% 2.2 mph N3.5 kmh N 2.7 mph4.3 kmh 29.73 in1006.8 mb 0.00 in0.0 mm 0.00 in0.0 mm 0.00 in0.0 mm
10:13 AM 35.1°F1.7°C 34.3°F1.3°C 97% 2.7 mph N4.3 kmh N 3.6 mph5.8 kmh 29.73 in1006.8 mb 0.00 in0.0 mm 0.00 in0.0 mm 0.00 in0.0 mm
10:18 AM 35.2°F1.8°C 34.2°F1.2°C 96% 2.9 mph N4.7 kmh N 4.0 mph6.4 kmh 29.74 in1007.1 mb 0.00 in0.0 mm 0.00 in0.0 mm 0.00 in0.0 mm
10:23 AM 35.2°F1.8°C 34.2°F1.2°C 96% 1.8 mph N2.9 kmh N 3.4 mph5.5 kmh 29.74 in1007.1 mb 0.00 in0.0 mm 0.00 in0.0 mm 0.00 in0.0 mm
10:28 AM 35.2°F1.8°C 34.2°F1.2°C 96% 2.2 mph NNW3.5 kmh NNW 3.6 mph5.8 kmh 29.74 in1007.1 mb 0.00 in0.0 mm 0.00 in0.0 mm 0.00 in0.0 mm
10:33 AM 35.4°F1.9°C 34.3°F1.3°C 96% 3.1 mph N5.0 kmh N 4.9 mph7.9 kmh 29.75 in1007.5 mb 0.00 in0.0 mm 0.00 in0.0 mm 0.00 in0.0 mm
10:38 AM 35.4°F1.9°C 34.3°F1.3°C 96% 2.2 mph N3.5 kmh N 2.9 mph4.7 kmh 29.75 in1007.5 mb 0.00 in0.0 mm 0.00 in0.0 mm 0.00 in0.0 mm
10:43 AM 35.4°F1.9°C 34.3°F1.3°C 96% 2.5 mph N4.0 kmh N 3.4 mph5.5 kmh 29.75 in1007.5 mb 0.00 in0.0 mm 0.00 in0.0 mm 0.00 in0.0 mm
10:48 AM 35.4°F1.9°C 34.3°F1.3°C 96% 1.8 mph N2.9 kmh N 3.6 mph5.8 kmh 29.75 in1007.5 mb 0.00 in0.0 mm 0.00 in0.0 mm 0.00 in0.0 mm
10:53 AM 35.6°F2.0°C 34.3°F1.3°C 95% 1.8 mph NNW2.9 kmh NNW 3.1 mph5.0 kmh 29.75 in1007.5 mb 0.00 in0.0 mm 0.00 in0.0 mm 0.00 in0.0 mm
10:58 AM 35.8°F2.1°C 34.5°F1.4°C 95% 2.7 mph N4.3 kmh N 4.3 mph6.9 kmh 29.75 in1007.5 mb 0.00 in0.0 mm 0.00 in0.0 mm 0.00 in0.0 mm
11:03 AM 36.0°F2.2°C 34.7°F1.5°C 95% 0.4 mph N0.6 kmh N 1.8 mph2.9 kmh 29.75 in1007.5 mb 0.00 in0.0 mm 0.00 in0.0 mm 0.00 in0.0 mm
11:08 AM 36.1°F2.3°C 34.9°F1.6°C 95% 4.5 mph N7.2 kmh N 5.8 mph9.3 kmh 29.75 in1007.5 mb 0.00 in0.0 mm 0.00 in0.0 mm 0.00 in0.0 mm
11:13 AM 36.3°F2.4°C 35.1°F1.7°C 95% 4.3 mph N6.9 kmh N 6.7 mph10.8 kmh 29.77 in1008.1 mb 0.00 in0.0 mm 0.00 in0.0 mm 0.00 in0.0 mm
11:18 AM 36.5°F2.5°C 34.9°F1.6°C 94% 3.1 mph N5.0 kmh N 6.0 mph9.7 kmh 29.77 in1008.1 mb 0.00 in0.0 mm 0.00 in0.0 mm 0.00 in0.0 mm
11:23 AM 36.7°F2.6°C 35.1°F1.7°C 94% 3.8 mph N6.1 kmh N 7.4 mph11.9 kmh 29.77 in1008.1 mb 0.00 in0.0 mm 0.00 in0.0 mm 0.00 in0.0 mm
11:28 AM 36.9°F2.7°C 34.7°F1.5°C 92% 5.6 mph N9.0 kmh N 10.1 mph16.3 kmh 29.78 in1008.5 mb 0.00 in0.0 mm 0.00 in0.0 mm 0.00 in0.0 mm
11:33 AM 36.9°F2.7°C 34.7°F1.5°C 92% 5.6 mph N9.0 kmh N 7.8 mph12.6 kmh 29.78 in1008.5 mb 0.00 in0.0 mm 0.00 in0.0 mm 0.00 in0.0 mm
11:38 AM 37.0°F2.8°C 34.9°F1.6°C 92% 2.7 mph NNW4.3 kmh NNW 3.6 mph5.8 kmh 29.78 in1008.5 mb 0.00 in0.0 mm 0.00 in0.0 mm 0.00 in0.0 mm
11:44 AM 37.0°F2.8°C 34.9°F1.6°C 92% 4.0 mph N6.4 kmh N 5.8 mph9.3 kmh 29.79 in1008.8 mb 0.00 in0.0 mm 0.00 in0.0 mm 0.00 in0.0 mm
11:48 AM 37.0°F2.8°C 34.9°F1.6°C 92% 2.5 mph NW4.0 kmh NW 6.9 mph11.1 kmh 29.79 in1008.8 mb 0.00 in0.0 mm 0.00 in0.0 mm 0.00 in0.0 mm
11:54 AM 37.0°F2.8°C 34.7°F1.5°C 91% 5.6 mph N9.0 kmh N 7.4 mph11.9 kmh 29.79 in1008.8 mb 0.00 in0.0 mm 0.00 in0.0 mm 0.00 in0.0 mm
11:58 AM 36.9°F2.7°C 34.7°F1.5°C 92% 4.0 mph N6.4 kmh N 6.0 mph9.7 kmh 29.79 in1008.8 mb 0.00 in0.0 mm 0.00 in0.0 mm 0.00 in0.0 mm
12:04 PM 36.9°F2.7°C 34.5°F1.4°C 91% 4.9 mph N7.9 kmh N 8.5 mph13.7 kmh 29.79 in1008.8 mb 0.00 in0.0 mm 0.00 in0.0 mm 0.00 in0.0 mm
12:08 PM 37.0°F2.8°C 34.9°F1.6°C 92% 2.5 mph N4.0 kmh N 5.6 mph9.0 kmh 29.79 in1008.8 mb 0.00 in0.0 mm 0.00 in0.0 mm 0.00 in0.0 mm
12:14 PM 37.2°F2.9°C 35.6°F2.0°C 94% 3.1 mph N5.0 kmh N 5.1 mph8.2 kmh 29.78 in1008.5 mb 0.00 in0.0 mm 0.00 in0.0 mm 0.00 in0.0 mm
12:19 PM 37.4°F3.0°C 36.1°F2.3°C 95% 2.5 mph N4.0 kmh N 3.1 mph5.0 kmh 29.78 in1008.5 mb 0.00 in0.0 mm 0.00 in0.0 mm 0.00 in0.0 mm
12:24 PM 37.6°F3.1°C 36.3°F2.4°C 95% 3.6 mph N5.8 kmh N 4.9 mph7.9 kmh 29.78 in1008.5 mb 0.00 in0.0 mm 0.00 in0.0 mm 0.00 in0.0 mm
12:29 PM 37.6°F3.1°C 36.3°F2.4°C 95% 3.6 mph N5.8 kmh N 6.7 mph10.8 kmh 29.78 in1008.5 mb 0.00 in0.0 mm 0.00 in0.0 mm 0.00 in0.0 mm
12:34 PM 37.8°F3.2°C 36.5°F2.5°C 95% 3.1 mph N5.0 kmh N 4.0 mph6.4 kmh 29.78 in1008.5 mb 0.00 in0.0 mm 0.00 in0.0 mm 0.00 in0.0 mm
12:39 PM 37.9°F3.3°C 36.7°F2.6°C 95% 0.9 mph N1.4 kmh N 1.6 mph2.6 kmh 29.78 in1008.5 mb 0.00 in0.0 mm 0.00 in0.0 mm 0.00 in0.0 mm
12:44 PM 37.9°F3.3°C 36.7°F2.6°C 95% 2.9 mph NW4.7 kmh NW 5.4 mph8.7 kmh 29.79 in1008.8 mb 0.00 in0.0 mm 0.00 in0.0 mm 0.00 in0.0 mm
12:49 PM 38.1°F3.4°C 36.5°F2.5°C 94% 2.9 mph W4.7 kmh W 4.5 mph7.2 kmh 29.79 in1008.8 mb 0.00 in0.0 mm 0.00 in0.0 mm 0.00 in0.0 mm
12:54 PM 38.1°F3.4°C 36.0°F2.2°C 92% 3.1 mph N5.0 kmh N 6.3 mph10.1 kmh 29.79 in1008.8 mb 0.00 in0.0 mm 0.00 in0.0 mm 0.00 in0.0 mm
12:59 PM 38.1°F3.4°C 36.0°F2.2°C 92% 2.0 mph NNW3.2 kmh NNW 6.7 mph10.8 kmh 29.79 in1008.8 mb 0.00 in0.0 mm 0.00 in0.0 mm 0.00 in0.0 mm
01:04 PM 38.3°F3.5°C 36.0°F2.2°C 91% 2.7 mph NW4.3 kmh NW 6.3 mph10.1 kmh 29.79 in1008.8 mb 0.00 in0.0 mm 0.00 in0.0 mm 0.00 in0.0 mm
01:09 PM 38.1°F3.4°C 35.4°F1.9°C 90% 1.6 mph SSW2.6 kmh SSW 2.9 mph4.7 kmh 29.79 in1008.8 mb 0.00 in0.0 mm 0.00 in0.0 mm 0.00 in0.0 mm
01:14 PM 37.9°F3.3°C 35.2°F1.8°C 90% 2.5 mph N4.0 kmh N 4.7 mph7.6 kmh 29.79 in1008.8 mb 0.00 in0.0 mm 0.00 in0.0 mm 0.00 in0.0 mm
01:19 PM 37.8°F3.2°C 35.1°F1.7°C 90% 2.7 mph NW4.3 kmh NW 5.8 mph9.3 kmh 29.78 in1008.5 mb 0.00 in0.0 mm 0.00 in0.0 mm 0.00 in0.0 mm
01:24 PM 37.8°F3.2°C 35.4°F1.9°C 91% 2.7 mph NNW4.3 kmh NNW 4.7 mph7.6 kmh 29.78 in1008.5 mb 0.00 in0.0 mm 0.00 in0.0 mm 0.00 in0.0 mm
01:29 PM 37.8°F3.2°C 35.1°F1.7°C 90% 2.5 mph NW4.0 kmh NW 5.8 mph9.3 kmh 29.78 in1008.5 mb 0.00 in0.0 mm 0.00 in0.0 mm 0.00 in0.0 mm
01:34 PM 37.6°F3.1°C 34.9°F1.6°C 90% 2.5 mph S4.0 kmh S 4.7 mph7.6 kmh 29.78 in1008.5 mb 0.00 in0.0 mm 0.00 in0.0 mm 0.00 in0.0 mm
01:39 PM 37.8°F3.2°C 35.4°F1.9°C 91% 2.2 mph N3.5 kmh N 4.7 mph7.6 kmh 29.79 in1008.8 mb 0.00 in0.0 mm 0.00 in0.0 mm 0.00 in0.0 mm
01:44 PM 37.8°F3.2°C 35.1°F1.7°C 90% 1.3 mph NNE2.1 kmh NNE 2.7 mph4.3 kmh 29.79 in1008.8 mb 0.00 in0.0 mm 0.00 in0.0 mm 0.00 in0.0 mm
01:49 PM 37.6°F3.1°C 34.9°F1.6°C 90% 0.9 mph SSW1.4 kmh SSW 2.7 mph4.3 kmh 29.79 in1008.8 mb 0.00 in0.0 mm 0.00 in0.0 mm 0.00 in0.0 mm
01:54 PM 37.8°F3.2°C 35.1°F1.7°C 90% 0.7 mph ESE1.1 kmh ESE 2.7 mph4.3 kmh 29.78 in1008.5 mb 0.00 in0.0 mm 0.00 in0.0 mm 0.00 in0.0 mm
01:59 PM 37.9°F3.3°C 35.2°F1.8°C 90% 1.6 mph N2.6 kmh N 3.1 mph5.0 kmh 29.78 in1008.5 mb 0.00 in0.0 mm 0.00 in0.0 mm 0.00 in0.0 mm
02:04 PM 37.9°F3.3°C 35.2°F1.8°C 90% 1.1 mph N1.8 kmh N 2.7 mph4.3 kmh 29.79 in1008.8 mb 0.00 in0.0 mm 0.00 in0.0 mm 0.00 in0.0 mm
02:09 PM 38.3°F3.5°C 35.6°F2.0°C 90% 1.3 mph SW2.1 kmh SW 2.5 mph4.0 kmh 29.79 in1008.8 mb 0.00 in0.0 mm 0.00 in0.0 mm 0.00 in0.0 mm
02:14 PM 38.5°F3.6°C 35.6°F2.0°C 89% 2.7 mph S4.3 kmh S 4.3 mph6.9 kmh 29.79 in1008.8 mb 0.00 in0.0 mm 0.00 in0.0 mm 0.00 in0.0 mm
02:19 PM 38.8°F3.8°C 36.0°F2.2°C 89% 2.7 mph WSW4.3 kmh WSW 7.2 mph11.6 kmh 29.79 in1008.8 mb 0.00 in0.0 mm 0.00 in0.0 mm 0.00 in0.0 mm
02:24 PM 38.8°F3.8°C 35.2°F1.8°C 87% 2.5 mph 4.0 kmh 3.6 mph5.8 kmh 29.79 in1008.8 mb 0.00 in0.0 mm 0.00 in0.0 mm 0.00 in0.0 mm
02:29 PM 39.0°F3.9°C 35.4°F1.9°C 87% 3.4 mph S5.5 kmh S 4.7 mph7.6 kmh 29.78 in1008.5 mb 0.00 in0.0 mm 0.00 in0.0 mm 0.00 in0.0 mm
02:34 PM 39.2°F4.0°C 35.6°F2.0°C 87% 1.8 mph SW2.9 kmh SW 3.6 mph5.8 kmh 29.79 in1008.8 mb 0.00 in0.0 mm 0.00 in0.0 mm 0.00 in0.0 mm
02:39 PM 39.4°F4.1°C 35.6°F2.0°C 86% 2.7 mph NNW4.3 kmh NNW 4.5 mph7.2 kmh 29.79 in1008.8 mb 0.00 in0.0 mm 0.00 in0.0 mm 0.00 in0.0 mm
02:44 PM 39.6°F4.2°C 35.8°F2.1°C 86% 2.7 mph WSW4.3 kmh WSW 6.5 mph10.5 kmh 29.79 in1008.8 mb 0.00 in0.0 mm 0.00 in0.0 mm 0.00 in0.0 mm
02:49 PM 39.7°F4.3°C 35.6°F2.0°C 85% 1.8 mph WSW2.9 kmh WSW 4.9 mph7.9 kmh 29.79 in1008.8 mb 0.00 in0.0 mm 0.00 in0.0 mm 0.00 in0.0 mm
02:54 PM 40.1°F4.5°C 36.0°F2.2°C 85% 1.6 mph NNW2.6 kmh NNW 4.5 mph7.2 kmh 29.79 in1008.8 mb 0.00 in0.0 mm 0.00 in0.0 mm 0.00 in0.0 mm
02:59 PM 40.3°F4.6°C 35.8°F2.1°C 84% 1.6 mph NE2.6 kmh NE 4.7 mph7.6 kmh 29.79 in1008.8 mb 0.00 in0.0 mm 0.00 in0.0 mm 0.00 in0.0 mm
03:04 PM 40.5°F4.7°C 35.4°F1.9°C 82% 1.1 mph NW1.8 kmh NW 2.5 mph4.0 kmh 29.79 in1008.8 mb 0.00 in0.0 mm 0.00 in0.0 mm 0.00 in0.0 mm
03:09 PM 40.6°F4.8°C 35.6°F2.0°C 82% 1.8 mph S2.9 kmh S 3.4 mph5.5 kmh 29.79 in1008.8 mb 0.00 in0.0 mm 0.00 in0.0 mm 0.00 in0.0 mm
03:14 PM 40.8°F4.9°C 35.8°F2.1°C 82% 1.8 mph SW2.9 kmh SW 2.9 mph4.7 kmh 29.79 in1008.8 mb 0.00 in0.0 mm 0.00 in0.0 mm 0.00 in0.0 mm
03:19 PM 41.2°F5.1°C 36.1°F2.3°C 82% 1.6 mph N2.6 kmh N 4.0 mph6.4 kmh 29.79 in1008.8 mb 0.00 in0.0 mm 0.00 in0.0 mm 0.00 in0.0 mm
03:24 PM 41.2°F5.1°C 36.1°F2.3°C 82% 4.7 mph SSW7.6 kmh SSW 6.5 mph10.5 kmh 29.79 in1008.8 mb 0.00 in0.0 mm 0.00 in0.0 mm 0.00 in0.0 mm
03:29 PM 41.5°F5.3°C 36.5°F2.5°C 82% 3.8 mph S6.1 kmh S 5.6 mph9.0 kmh 29.79 in1008.8 mb 0.00 in0.0 mm 0.00 in0.0 mm 0.00 in0.0 mm
03:34 PM 41.7°F5.4°C 36.7°F2.6°C 82% 4.9 mph SSW7.9 kmh SSW 7.6 mph12.2 kmh 29.79 in1008.8 mb 0.00 in0.0 mm 0.00 in0.0 mm 0.00 in0.0 mm
03:39 PM 41.7°F5.4°C 36.3°F2.4°C 81% 3.4 mph WSW5.5 kmh WSW 5.8 mph9.3 kmh 29.78 in1008.5 mb 0.00 in0.0 mm 0.00 in0.0 mm 0.00 in0.0 mm
03:44 PM 41.9°F5.5°C 36.5°F2.5°C 81% 1.1 mph WSW1.8 kmh WSW 2.5 mph4.0 kmh 29.79 in1008.8 mb 0.00 in0.0 mm 0.00 in0.0 mm 0.00 in0.0 mm
03:49 PM 41.9°F5.5°C 36.5°F2.5°C 81% 4.3 mph S6.9 kmh S 5.8 mph9.3 kmh 29.79 in1008.8 mb 0.00 in0.0 mm 0.00 in0.0 mm 0.00 in0.0 mm
03:54 PM 42.1°F5.6°C 36.3°F2.4°C 80% 2.7 mph NW4.3 kmh NW 4.3 mph6.9 kmh 29.80 in1009.1 mb 0.00 in0.0 mm 0.00 in0.0 mm 0.00 in0.0 mm
03:59 PM 42.1°F5.6°C 36.3°F2.4°C 80% 2.0 mph NNW3.2 kmh NNW 4.3 mph6.9 kmh 29.80 in1009.1 mb 0.00 in0.0 mm 0.00 in0.0 mm 0.00 in0.0 mm
04:04 PM 42.3°F5.7°C 36.5°F2.5°C 80% 3.6 mph NNW5.8 kmh NNW 5.4 mph8.7 kmh 29.80 in1009.1 mb 0.00 in0.0 mm 0.00 in0.0 mm 0.00 in0.0 mm
04:09 PM 42.3°F5.7°C 36.1°F2.3°C 79% 0.9 mph S1.4 kmh S 1.8 mph2.9 kmh 29.80 in1009.1 mb 0.00 in0.0 mm 0.00 in0.0 mm 0.00 in0.0 mm
04:14 PM 42.3°F5.7°C 36.5°F2.5°C 80% 2.5 mph SSW4.0 kmh SSW 4.7 mph7.6 kmh 29.80 in1009.1 mb 0.00 in0.0 mm 0.00 in0.0 mm 0.00 in0.0 mm
04:19 PM 42.4°F5.8°C 36.3°F2.4°C 79% 3.1 mph SSW5.0 kmh SSW 4.7 mph7.6 kmh 29.80 in1009.1 mb 0.00 in0.0 mm 0.00 in0.0 mm 0.00 in0.0 mm
04:24 PM 42.4°F5.8°C 36.3°F2.4°C 79% 1.3 mph WSW2.1 kmh WSW 3.4 mph5.5 kmh 29.80 in1009.1 mb 0.00 in0.0 mm 0.00 in0.0 mm 0.00 in0.0 mm
04:29 PM 42.8°F6.0°C 36.1°F2.3°C 77% 1.8 mph SSW2.9 kmh SSW 3.1 mph5.0 kmh 29.80 in1009.1 mb 0.00 in0.0 mm 0.00 in0.0 mm 0.00 in0.0 mm
04:34 PM 42.6°F5.9°C 36.5°F2.5°C 79% 4.3 mph SW6.9 kmh SW 7.6 mph12.2 kmh 29.80 in1009.1 mb 0.00 in0.0 mm 0.00 in0.0 mm 0.00 in0.0 mm
04:39 PM 43.0°F6.1°C 36.3°F2.4°C 77% 2.7 mph SSW4.3 kmh SSW 4.3 mph6.9 kmh 29.80 in1009.1 mb 0.00 in0.0 mm 0.00 in0.0 mm 0.00 in0.0 mm
04:44 PM 43.0°F6.1°C 36.3°F2.4°C 77% 4.5 mph SW7.2 kmh SW 7.4 mph11.9 kmh 29.79 in1008.8 mb 0.00 in0.0 mm 0.00 in0.0 mm 0.00 in0.0 mm
04:49 PM 43.2°F6.2°C 36.5°F2.5°C 77% 3.4 mph SSW5.5 kmh SSW 4.9 mph7.9 kmh 29.79 in1008.8 mb 0.00 in0.0 mm 0.00 in0.0 mm 0.00 in0.0 mm
04:54 PM 43.2°F6.2°C 36.5°F2.5°C 77% 2.9 mph SW4.7 kmh SW 6.0 mph9.7 kmh 29.79 in1008.8 mb 0.00 in0.0 mm 0.00 in0.0 mm 0.00 in0.0 mm
04:59 PM 43.2°F6.2°C 36.5°F2.5°C 77% 3.1 mph SSW5.0 kmh SSW 6.5 mph10.5 kmh 29.80 in1009.1 mb 0.00 in0.0 mm 0.00 in0.0 mm 0.00 in0.0 mm
05:04 PM 43.2°F6.2°C 36.5°F2.5°C 77% 2.5 mph SW4.0 kmh SW 4.5 mph7.2 kmh 29.80 in1009.1 mb 0.00 in0.0 mm 0.00 in0.0 mm 0.00 in0.0 mm
05:09 PM 43.2°F6.2°C 36.5°F2.5°C 77% 1.8 mph SSW2.9 kmh SSW 3.8 mph6.1 kmh 29.80 in1009.1 mb 0.00 in0.0 mm 0.00 in0.0 mm 0.00 in0.0 mm
05:14 PM 43.2°F6.2°C 36.5°F2.5°C 77% 1.3 mph SSW2.1 kmh SSW 2.7 mph4.3 kmh 29.79 in1008.8 mb 0.00 in0.0 mm 0.00 in0.0 mm 0.00 in0.0 mm
05:19 PM 43.0°F6.1°C 36.9°F2.7°C 79% 3.4 mph S5.5 kmh S 4.7 mph7.6 kmh 29.80 in1009.1 mb 0.00 in0.0 mm 0.00 in0.0 mm 0.00 in0.0 mm
05:24 PM 43.0°F6.1°C 36.9°F2.7°C 79% 3.4 mph SW5.5 kmh SW 8.5 mph13.7 kmh 29.80 in1009.1 mb 0.00 in0.0 mm 0.00 in0.0 mm 0.00 in0.0 mm
05:29 PM 42.8°F6.0°C 36.7°F2.6°C 79% 3.8 mph SSW6.1 kmh SSW 7.8 mph12.6 kmh 29.80 in1009.1 mb 0.00 in0.0 mm 0.00 in0.0 mm 0.00 in0.0 mm
05:34 PM 42.8°F6.0°C 36.7°F2.6°C 79% 1.8 mph SW2.9 kmh SW 2.7 mph4.3 kmh 29.80 in1009.1 mb 0.00 in0.0 mm 0.00 in0.0 mm 0.00 in0.0 mm
05:39 PM 42.8°F6.0°C 36.7°F2.6°C 79% 4.7 mph S7.6 kmh S 8.9 mph14.3 kmh 29.81 in1009.5 mb 0.00 in0.0 mm 0.00 in0.0 mm 0.00 in0.0 mm
05:44 PM 42.6°F5.9°C 36.5°F2.5°C 79% 1.6 mph NW2.6 kmh NW 3.6 mph5.8 kmh 29.81 in1009.5 mb 0.00 in0.0 mm 0.00 in0.0 mm 0.00 in0.0 mm
05:49 PM 42.6°F5.9°C 36.5°F2.5°C 79% 3.8 mph SW6.1 kmh SW 8.1 mph13.0 kmh 29.81 in1009.5 mb 0.00 in0.0 mm 0.00 in0.0 mm 0.00 in0.0 mm
05:54 PM 42.4°F5.8°C 36.7°F2.6°C 80% 2.0 mph SW3.2 kmh SW 3.1 mph5.0 kmh 29.82 in1009.8 mb 0.00 in0.0 mm 0.00 in0.0 mm 0.00 in0.0 mm
05:59 PM 42.4°F5.8°C 36.7°F2.6°C 80% 0.2 mph NNW0.3 kmh NNW 1.1 mph1.8 kmh 29.82 in1009.8 mb 0.00 in0.0 mm 0.00 in0.0 mm 0.00 in0.0 mm
06:04 PM 42.3°F5.7°C 36.5°F2.5°C 80% 0.7 mph NNW1.1 kmh NNW 1.6 mph2.6 kmh 29.83 in1010.2 mb 0.00 in0.0 mm 0.00 in0.0 mm 0.00 in0.0 mm
06:09 PM 42.3°F5.7°C 36.5°F2.5°C 80% 1.8 mph NNW2.9 kmh NNW 6.3 mph10.1 kmh 29.83 in1010.2 mb 0.00 in0.0 mm 0.00 in0.0 mm 0.00 in0.0 mm
06:14 PM 42.1°F5.6°C 36.7°F2.6°C 81% 1.1 mph N1.8 kmh N 2.7 mph4.3 kmh 29.83 in1010.2 mb 0.00 in0.0 mm 0.00 in0.0 mm 0.00 in0.0 mm
06:19 PM 41.9°F5.5°C 36.5°F2.5°C 81% 2.7 mph SW4.3 kmh SW 4.3 mph6.9 kmh 29.84 in1010.5 mb 0.00 in0.0 mm 0.00 in0.0 mm 0.00 in0.0 mm
06:24 PM 41.9°F5.5°C 36.5°F2.5°C 81% 1.8 mph W2.9 kmh W 10.5 mph16.9 kmh 29.84 in1010.5 mb 0.00 in0.0 mm 0.00 in0.0 mm 0.00 in0.0 mm
06:29 PM 41.7°F5.4°C 36.3°F2.4°C 81% 1.8 mph WSW2.9 kmh WSW 3.1 mph5.0 kmh 29.84 in1010.5 mb 0.00 in0.0 mm 0.00 in0.0 mm 0.00 in0.0 mm
06:34 PM 41.5°F5.3°C 36.1°F2.3°C 81% 2.0 mph WSW3.2 kmh WSW 6.9 mph11.1 kmh 29.84 in1010.5 mb 0.00 in0.0 mm 0.00 in0.0 mm 0.00 in0.0 mm
06:39 PM 41.5°F5.3°C 36.1°F2.3°C 81% 2.7 mph WSW4.3 kmh WSW 4.7 mph7.6 kmh 29.84 in1010.5 mb 0.00 in0.0 mm 0.00 in0.0 mm 0.00 in0.0 mm
06:44 PM 41.5°F5.3°C 36.1°F2.3°C 81% 1.3 mph NW2.1 kmh NW 3.1 mph5.0 kmh 29.84 in1010.5 mb 0.00 in0.0 mm 0.00 in0.0 mm 0.00 in0.0 mm
06:49 PM 41.4°F5.2°C 36.0°F2.2°C 81% 2.9 mph WSW4.7 kmh WSW 4.7 mph7.6 kmh 29.84 in1010.5 mb 0.00 in0.0 mm 0.00 in0.0 mm 0.00 in0.0 mm
06:54 PM 41.2°F5.1°C 35.8°F2.1°C 81% 1.1 mph W1.8 kmh W 2.0 mph3.2 kmh 29.85 in1010.8 mb 0.00 in0.0 mm 0.00 in0.0 mm 0.00 in0.0 mm
06:59 PM 41.2°F5.1°C 35.8°F2.1°C 81% 1.8 mph S2.9 kmh S 3.6 mph5.8 kmh 29.84 in1010.5 mb 0.00 in0.0 mm 0.00 in0.0 mm 0.00 in0.0 mm
07:04 PM 41.2°F5.1°C 35.8°F2.1°C 81% 4.0 mph SW6.4 kmh SW 6.7 mph10.8 kmh 29.85 in1010.8 mb 0.00 in0.0 mm 0.00 in0.0 mm 0.00 in0.0 mm
07:09 PM 41.2°F5.1°C 35.8°F2.1°C 81% 1.6 mph SSW2.6 kmh SSW 2.5 mph4.0 kmh 29.84 in1010.5 mb 0.00 in0.0 mm 0.00 in0.0 mm 0.00 in0.0 mm
07:14 PM 41.0°F5.0°C 35.6°F2.0°C 81% 2.2 mph WSW3.5 kmh WSW 4.0 mph6.4 kmh 29.84 in1010.5 mb 0.00 in0.0 mm 0.00 in0.0 mm 0.00 in0.0 mm
07:19 PM 41.0°F5.0°C 35.6°F2.0°C 81% 3.4 mph SW5.5 kmh SW 4.7 mph7.6 kmh 29.84 in1010.5 mb 0.00 in0.0 mm 0.00 in0.0 mm 0.00 in0.0 mm
07:24 PM 40.8°F4.9°C 35.8°F2.1°C 82% 1.6 mph S2.6 kmh S 2.0 mph3.2 kmh 29.84 in1010.5 mb 0.00 in0.0 mm 0.00 in0.0 mm 0.00 in0.0 mm
07:29 PM 40.6°F4.8°C 35.6°F2.0°C 82% 2.5 mph S4.0 kmh S 4.9 mph7.9 kmh 29.84 in1010.5 mb 0.00 in0.0 mm 0.00 in0.0 mm 0.00 in0.0 mm
07:34 PM 40.6°F4.8°C 35.6°F2.0°C 82% 3.1 mph SW5.0 kmh SW 5.4 mph8.7 kmh 29.84 in1010.5 mb 0.00 in0.0 mm 0.00 in0.0 mm 0.00 in0.0 mm
07:39 PM 40.6°F4.8°C 35.6°F2.0°C 82% 4.0 mph SSW6.4 kmh SSW 10.5 mph16.9 kmh 29.84 in1010.5 mb 0.00 in0.0 mm 0.00 in0.0 mm 0.00 in0.0 mm
07:44 PM 40.6°F4.8°C 35.6°F2.0°C 82% 2.2 mph WNW3.5 kmh WNW 4.3 mph6.9 kmh 29.84 in1010.5 mb 0.00 in0.0 mm 0.00 in0.0 mm 0.00 in0.0 mm
07:49 PM 40.6°F4.8°C 36.1°F2.3°C 84% 1.1 mph NNW1.8 kmh NNW 2.9 mph4.7 kmh 29.85 in1010.8 mb 0.00 in0.0 mm 0.00 in0.0 mm 0.00 in0.0 mm
07:54 PM 40.6°F4.8°C 36.1°F2.3°C 84% 6.0 mph SSW9.7 kmh SSW 9.8 mph15.8 kmh 29.85 in1010.8 mb 0.00 in0.0 mm 0.00 in0.0 mm 0.00 in0.0 mm
07:59 PM 40.5°F4.7°C 36.0°F2.2°C 84% 2.2 mph WSW3.5 kmh WSW 3.8 mph6.1 kmh 29.85 in1010.8 mb 0.00 in0.0 mm 0.00 in0.0 mm 0.00 in0.0 mm
08:04 PM 40.5°F4.7°C 36.0°F2.2°C 84% 1.8 mph SSW2.9 kmh SSW 4.7 mph7.6 kmh 29.85 in1010.8 mb 0.00 in0.0 mm 0.00 in0.0 mm 0.00 in0.0 mm
08:09 PM 40.3°F4.6°C 35.8°F2.1°C 84% 4.5 mph SW7.2 kmh SW 14.1 mph22.7 kmh 29.85 in1010.8 mb 0.00 in0.0 mm 0.00 in0.0 mm 0.00 in0.0 mm
08:14 PM 40.6°F4.8°C 36.1°F2.3°C 84% 5.1 mph SW8.2 kmh SW 11.4 mph18.3 kmh 29.85 in1010.8 mb 0.00 in0.0 mm 0.00 in0.0 mm 0.00 in0.0 mm
08:19 PM 40.8°F4.9°C 36.7°F2.6°C 85% 2.2 mph SSW3.5 kmh SSW 5.4 mph8.7 kmh 29.85 in1010.8 mb 0.00 in0.0 mm 0.00 in0.0 mm 0.00 in0.0 mm
08:24 PM 40.8°F4.9°C 36.3°F2.4°C 84% 2.0 mph W3.2 kmh W 4.3 mph6.9 kmh 29.85 in1010.8 mb 0.00 in0.0 mm 0.00 in0.0 mm 0.00 in0.0 mm
08:29 PM 40.8°F4.9°C 36.7°F2.6°C 85% 4.5 mph SW7.2 kmh SW 8.3 mph13.4 kmh 29.85 in1010.8 mb 0.00 in0.0 mm 0.00 in0.0 mm 0.00 in0.0 mm
08:34 PM 40.8°F4.9°C 36.7°F2.6°C 85% 3.6 mph SSW5.8 kmh SSW 10.3 mph16.6 kmh 29.85 in1010.8 mb 0.00 in0.0 mm 0.00 in0.0 mm 0.00 in0.0 mm
08:39 PM 41.0°F5.0°C 36.5°F2.5°C 84% 2.5 mph SW4.0 kmh SW 8.3 mph13.4 kmh 29.85 in1010.8 mb 0.00 in0.0 mm 0.00 in0.0 mm 0.00 in0.0 mm
08:44 PM 41.2°F5.1°C 36.7°F2.6°C 84% 3.1 mph SW5.0 kmh SW 6.9 mph11.1 kmh 29.85 in1010.8 mb 0.00 in0.0 mm 0.00 in0.0 mm 0.00 in0.0 mm
08:49 PM 41.2°F5.1°C 36.7°F2.6°C 84% 2.0 mph SW3.2 kmh SW 3.1 mph5.0 kmh 29.85 in1010.8 mb 0.00 in0.0 mm 0.00 in0.0 mm 0.00 in0.0 mm
08:54 PM 41.2°F5.1°C 36.7°F2.6°C 84% 3.1 mph SW5.0 kmh SW 6.3 mph10.1 kmh 29.85 in1010.8 mb 0.00 in0.0 mm 0.00 in0.0 mm 0.00 in0.0 mm
08:59 PM 41.4°F5.2°C 36.9°F2.7°C 84% 2.0 mph SSW3.2 kmh SSW 5.6 mph9.0 kmh 29.85 in1010.8 mb 0.00 in0.0 mm 0.00 in0.0 mm 0.00 in0.0 mm
09:04 PM 41.2°F5.1°C 36.7°F2.6°C 84% 3.6 mph NNW5.8 kmh NNW 7.2 mph11.6 kmh 29.86 in1011.2 mb 0.00 in0.0 mm 0.00 in0.0 mm 0.00 in0.0 mm
09:09 PM 41.4°F5.2°C 36.9°F2.7°C 84% 4.0 mph SW6.4 kmh SW 9.4 mph15.1 kmh 29.86 in1011.2 mb 0.00 in0.0 mm 0.00 in0.0 mm 0.00 in0.0 mm
09:14 PM 41.5°F5.3°C 37.0°F2.8°C 84% 3.8 mph NNW6.1 kmh NNW 8.3 mph13.4 kmh 29.85 in1010.8 mb 0.00 in0.0 mm 0.00 in0.0 mm 0.00 in0.0 mm
09:19 PM 41.5°F5.3°C 37.0°F2.8°C 84% 3.1 mph SW5.0 kmh SW 8.9 mph14.3 kmh 29.85 in1010.8 mb 0.00 in0.0 mm 0.00 in0.0 mm 0.00 in0.0 mm
09:24 PM 41.5°F5.3°C 37.0°F2.8°C 84% 4.9 mph WSW7.9 kmh WSW 8.5 mph13.7 kmh 29.85 in1010.8 mb 0.00 in0.0 mm 0.00 in0.0 mm 0.00 in0.0 mm
09:29 PM 41.5°F5.3°C 37.0°F2.8°C 84% 2.7 mph SSW4.3 kmh SSW 5.4 mph8.7 kmh 29.85 in1010.8 mb 0.00 in0.0 mm 0.00 in0.0 mm 0.00 in0.0 mm
09:34 PM 41.4°F5.2°C 36.9°F2.7°C 84% 2.2 mph SW3.5 kmh SW 7.6 mph12.2 kmh 29.86 in1011.2 mb 0.00 in0.0 mm 0.00 in0.0 mm 0.00 in0.0 mm
09:39 PM 41.5°F5.3°C 37.0°F2.8°C 84% 3.8 mph W6.1 kmh W 8.3 mph13.4 kmh 29.86 in1011.2 mb 0.00 in0.0 mm 0.00 in0.0 mm 0.00 in0.0 mm
09:44 PM 41.4°F5.2°C 36.9°F2.7°C 84% 2.7 mph WSW4.3 kmh WSW 8.5 mph13.7 kmh 29.86 in1011.2 mb 0.00 in0.0 mm 0.00 in0.0 mm 0.00 in0.0 mm
09:49 PM 41.4°F5.2°C 36.9°F2.7°C 84% 3.1 mph S5.0 kmh S 6.7 mph10.8 kmh 29.87 in1011.5 mb 0.00 in0.0 mm 0.00 in0.0 mm 0.00 in0.0 mm
09:54 PM 41.4°F5.2°C 36.9°F2.7°C 84% 4.0 mph WSW6.4 kmh WSW 8.3 mph13.4 kmh 29.87 in1011.5 mb 0.00 in0.0 mm 0.00 in0.0 mm 0.00 in0.0 mm
09:59 PM 41.5°F5.3°C 37.0°F2.8°C 84% 4.3 mph W6.9 kmh W 8.1 mph13.0 kmh 29.86 in1011.2 mb 0.00 in0.0 mm 0.00 in0.0 mm 0.00 in0.0 mm
10:04 PM 41.5°F5.3°C 36.5°F2.5°C 82% 2.2 mph NNW3.5 kmh NNW 4.3 mph6.9 kmh 29.87 in1011.5 mb 0.00 in0.0 mm 0.00 in0.0 mm 0.00 in0.0 mm
10:09 PM 41.4°F5.2°C 36.9°F2.7°C 84% 4.0 mph W6.4 kmh W 9.8 mph15.8 kmh 29.86 in1011.2 mb 0.00 in0.0 mm 0.00 in0.0 mm 0.00 in0.0 mm
10:14 PM 41.4°F5.2°C 36.9°F2.7°C 84% 3.6 mph WNW5.8 kmh WNW 10.5 mph16.9 kmh 29.87 in1011.5 mb 0.00 in0.0 mm 0.00 in0.0 mm 0.00 in0.0 mm
10:19 PM 41.4°F5.2°C 36.9°F2.7°C 84% 3.6 mph SW5.8 kmh SW 8.7 mph14.0 kmh 29.86 in1011.2 mb 0.00 in0.0 mm 0.00 in0.0 mm 0.00 in0.0 mm
10:24 PM 41.4°F5.2°C 36.9°F2.7°C 84% 2.7 mph SW4.3 kmh SW 5.4 mph8.7 kmh 29.87 in1011.5 mb 0.00 in0.0 mm 0.00 in0.0 mm 0.00 in0.0 mm
10:29 PM 41.4°F5.2°C 36.9°F2.7°C 84% 2.7 mph SW4.3 kmh SW 5.6 mph9.0 kmh 29.87 in1011.5 mb 0.00 in0.0 mm 0.00 in0.0 mm 0.00 in0.0 mm
10:34 PM 41.4°F5.2°C 36.9°F2.7°C 84% 3.1 mph WSW5.0 kmh WSW 7.2 mph11.6 kmh 29.87 in1011.5 mb 0.00 in0.0 mm 0.00 in0.0 mm 0.00 in0.0 mm
10:39 PM 41.4°F5.2°C 36.9°F2.7°C 84% 1.8 mph WSW2.9 kmh WSW 3.6 mph5.8 kmh 29.87 in1011.5 mb 0.00 in0.0 mm 0.00 in0.0 mm 0.00 in0.0 mm
10:44 PM 41.2°F5.1°C 36.7°F2.6°C 84% 2.9 mph NW4.7 kmh NW 9.6 mph15.4 kmh 29.87 in1011.5 mb 0.00 in0.0 mm 0.00 in0.0 mm 0.00 in0.0 mm
10:49 PM 41.2°F5.1°C 36.7°F2.6°C 84% 3.6 mph W5.8 kmh W 6.7 mph10.8 kmh 29.87 in1011.5 mb 0.00 in0.0 mm 0.00 in0.0 mm 0.00 in0.0 mm
10:54 PM 41.2°F5.1°C 36.7°F2.6°C 84% 2.2 mph WSW3.5 kmh WSW 5.1 mph8.2 kmh 29.87 in1011.5 mb 0.00 in0.0 mm 0.00 in0.0 mm 0.00 in0.0 mm
10:59 PM 41.2°F5.1°C 37.0°F2.8°C 85% 2.0 mph WNW3.2 kmh WNW 6.5 mph10.5 kmh 29.87 in1011.5 mb 0.00 in0.0 mm 0.00 in0.0 mm 0.00 in0.0 mm
11:04 PM 40.8°F4.9°C 36.7°F2.6°C 85% 3.1 mph NW5.0 kmh NW 8.7 mph14.0 kmh 29.88 in1011.9 mb 0.00 in0.0 mm 0.00 in0.0 mm 0.00 in0.0 mm
11:09 PM 41.0°F5.0°C 36.9°F2.7°C 85% 2.2 mph SW3.5 kmh SW 5.1 mph8.2 kmh 29.88 in1011.9 mb 0.00 in0.0 mm 0.00 in0.0 mm 0.00 in0.0 mm
11:14 PM 41.0°F5.0°C 36.9°F2.7°C 85% 4.0 mph SW6.4 kmh SW 10.5 mph16.9 kmh 29.88 in1011.9 mb 0.00 in0.0 mm 0.00 in0.0 mm 0.00 in0.0 mm
11:19 PM 41.0°F5.0°C 36.9°F2.7°C 85% 1.8 mph W2.9 kmh W 5.6 mph9.0 kmh 29.88 in1011.9 mb 0.00 in0.0 mm 0.00 in0.0 mm 0.00 in0.0 mm
11:24 PM 40.8°F4.9°C 36.7°F2.6°C 85% 1.6 mph WSW2.6 kmh WSW 3.4 mph5.5 kmh 29.88 in1011.9 mb 0.00 in0.0 mm 0.00 in0.0 mm 0.00 in0.0 mm
11:29 PM 40.8°F4.9°C 36.7°F2.6°C 85% 2.5 mph WNW4.0 kmh WNW 4.5 mph7.2 kmh 29.88 in1011.9 mb 0.00 in0.0 mm 0.00 in0.0 mm 0.00 in0.0 mm
11:34 PM 40.6°F4.8°C 36.5°F2.5°C 85% 2.7 mph WNW4.3 kmh WNW 4.0 mph6.4 kmh 29.88 in1011.9 mb 0.00 in0.0 mm 0.00 in0.0 mm 0.00 in0.0 mm
11:39 PM 40.6°F4.8°C 36.9°F2.7°C 86% 4.0 mph W6.4 kmh W 10.7 mph17.2 kmh 29.88 in1011.9 mb 0.00 in0.0 mm 0.00 in0.0 mm 0.00 in0.0 mm
11:44 PM 40.8°F4.9°C 37.0°F2.8°C 86% 1.8 mph WNW2.9 kmh WNW 3.6 mph5.8 kmh 29.88 in1011.9 mb 0.00 in0.0 mm 0.00 in0.0 mm 0.00 in0.0 mm
11:49 PM 40.6°F4.8°C 36.9°F2.7°C 86% 2.0 mph N3.2 kmh N 4.5 mph7.2 kmh 29.88 in1011.9 mb 0.00 in0.0 mm 0.00 in0.0 mm 0.00 in0.0 mm
11:54 PM 40.6°F4.8°C 36.9°F2.7°C 86% 1.6 mph NW2.6 kmh NW 3.6 mph5.8 kmh 29.88 in1011.9 mb 0.00 in0.0 mm 0.00 in0.0 mm 0.00 in0.0 mm
11:59 PM 40.6°F4.8°C 36.9°F2.7°C 86% 2.7 mph W4.3 kmh W 6.0 mph9.7 kmh 29.89 in1012.2 mb 0.00 in0.0 mm 0.00 in0.0 mm 0.00 in0.0 mm